sensor_id;sensor_type;location;lat;lon;timestamp;pressure;altitude;pressure_sealevel;temperature
48628;BMP280;34424;52.234;6.500;2023-04-24T00:00:22;61912.19;;;8.51
48628;BMP280;34424;52.234;6.500;2023-04-24T00:05:27;61885.88;;;8.58
48628;BMP280;34424;52.234;6.500;2023-04-24T00:10:31;61885.97;;;8.63
48628;BMP280;34424;52.234;6.500;2023-04-24T00:15:35;61890.34;;;8.72
48628;BMP280;34424;52.234;6.500;2023-04-24T00:20:38;61905.00;;;8.76
48628;BMP280;34424;52.234;6.500;2023-04-24T00:25:42;61926.00;;;8.86
48628;BMP280;34424;52.234;6.500;2023-04-24T00:30:47;61951.16;;;8.96
48628;BMP280;34424;52.234;6.500;2023-04-24T00:35:49;61960.50;;;8.95
48628;BMP280;34424;52.234;6.500;2023-04-24T00:40:52;61945.09;;;9.02
48628;BMP280;34424;52.234;6.500;2023-04-24T00:45:57;61926.34;;;9.02
48628;BMP280;34424;52.234;6.500;2023-04-24T00:51:00;61968.00;;;9.04
48628;BMP280;34424;52.234;6.500;2023-04-24T00:56:04;61962.88;;;9.07
48628;BMP280;34424;52.234;6.500;2023-04-24T01:01:09;61943.06;;;9.05
48628;BMP280;34424;52.234;6.500;2023-04-24T01:06:13;61932.25;;;9.10
48628;BMP280;34424;52.234;6.500;2023-04-24T01:11:17;61926.94;;;9.05
48628;BMP280;34424;52.234;6.500;2023-04-24T01:16:21;61925.94;;;9.06
48628;BMP280;34424;52.234;6.500;2023-04-24T01:21:26;61926.47;;;9.07
48628;BMP280;34424;52.234;6.500;2023-04-24T01:26:31;61937.28;;;9.02
48628;BMP280;34424;52.234;6.500;2023-04-24T01:31:34;61936.28;;;9.04
48628;BMP280;34424;52.234;6.500;2023-04-24T01:36:37;61933.53;;;8.99
48628;BMP280;34424;52.234;6.500;2023-04-24T01:41:41;61944.50;;;8.99
48628;BMP280;34424;52.234;6.500;2023-04-24T01:46:44;61913.06;;;8.89
48628;BMP280;34424;52.234;6.500;2023-04-24T01:51:47;61913.31;;;8.77
48628;BMP280;34424;52.234;6.500;2023-04-24T01:56:51;61942.97;;;8.78
48628;BMP280;34424;52.234;6.500;2023-04-24T02:01:56;61905.00;;;8.76
48628;BMP280;34424;52.234;6.500;2023-04-24T02:06:59;61935.75;;;8.81
48628;BMP280;34424;52.234;6.500;2023-04-24T02:12:03;61898.84;;;8.80
48628;BMP280;34424;52.234;6.500;2023-04-24T02:17:05;61930.72;;;8.88
48628;BMP280;34424;52.234;6.500;2023-04-24T02:22:08;61935.44;;;8.90
48628;BMP280;34424;52.234;6.500;2023-04-24T02:27:13;61942.13;;;8.87
48628;BMP280;34424;52.234;6.500;2023-04-24T02:32:16;61932.09;;;8.80
48628;BMP280;34424;52.234;6.500;2023-04-24T02:37:18;61914.84;;;8.76
48628;BMP280;34424;52.234;6.500;2023-04-24T02:42:22;61888.22;;;8.70
48628;BMP280;34424;52.234;6.500;2023-04-24T02:47:25;61900.72;;;8.72
48628;BMP280;34424;52.234;6.500;2023-04-24T02:52:28;61884.66;;;8.74
48628;BMP280;34424;52.234;6.500;2023-04-24T02:57:32;61923.63;;;8.74
48628;BMP280;34424;52.234;6.500;2023-04-24T03:02:36;61930.97;;;8.76
48628;BMP280;34424;52.234;6.500;2023-04-24T03:07:38;61931.03;;;8.79
48628;BMP280;34424;52.234;6.500;2023-04-24T03:12:43;61883.97;;;8.66
48628;BMP280;34424;52.234;6.500;2023-04-24T03:17:45;61903.56;;;8.60
48628;BMP280;34424;52.234;6.500;2023-04-24T03:22:48;61876.44;;;8.54
48628;BMP280;34424;52.234;6.500;2023-04-24T03:27:57;61888.16;;;8.45
48628;BMP280;34424;52.234;6.500;2023-04-24T03:33:00;61885.03;;;8.45
48628;BMP280;34424;52.234;6.500;2023-04-24T03:38:02;61906.81;;;8.43
48628;BMP280;34424;52.234;6.500;2023-04-24T03:43:07;61901.50;;;8.38
48628;BMP280;34424;52.234;6.500;2023-04-24T03:48:10;61866.16;;;8.37
48628;BMP280;34424;52.234;6.500;2023-04-24T03:53:13;61883.81;;;8.36
48628;BMP280;34424;52.234;6.500;2023-04-24T03:58:18;61865.03;;;8.33
48628;BMP280;34424;52.234;6.500;2023-04-24T04:03:20;61873.91;;;8.34
48628;BMP280;34424;52.234;6.500;2023-04-24T04:08:24;61863.03;;;8.36
48628;BMP280;34424;52.234;6.500;2023-04-24T04:13:28;61866.63;;;8.35
48628;BMP280;34424;52.234;6.500;2023-04-24T04:18:30;61867.63;;;8.33
48628;BMP280;34424;52.234;6.500;2023-04-24T04:23:54;61866.03;;;8.31
48628;BMP280;34424;52.234;6.500;2023-04-24T04:28:59;61887.41;;;8.35
48628;BMP280;34424;52.234;6.500;2023-04-24T04:34:02;61851.06;;;8.35
48628;BMP280;34424;52.234;6.500;2023-04-24T04:39:05;61850.78;;;8.24
48628;BMP280;34424;52.234;6.500;2023-04-24T04:44:09;61828.97;;;8.23
48628;BMP280;34424;52.234;6.500;2023-04-24T04:49:12;61880.78;;;8.18
48628;BMP280;34424;52.234;6.500;2023-04-24T04:54:18;61855.22;;;8.14
48628;BMP280;34424;52.234;6.500;2023-04-24T04:59:22;61874.03;;;8.19
48628;BMP280;34424;52.234;6.500;2023-04-24T05:04:24;61823.66;;;8.18
48628;BMP280;34424;52.234;6.500;2023-04-24T05:09:28;61841.78;;;8.16
48628;BMP280;34424;52.234;6.500;2023-04-24T05:14:32;61826.63;;;8.11
48628;BMP280;34424;52.234;6.500;2023-04-24T05:19:34;61852.56;;;8.11
48628;BMP280;34424;52.234;6.500;2023-04-24T05:24:39;61861.91;;;8.10
48628;BMP280;34424;52.234;6.500;2023-04-24T05:29:43;61832.28;;;8.09
48628;BMP280;34424;52.234;6.500;2023-04-24T05:34:46;61801.19;;;8.12
48628;BMP280;34424;52.234;6.500;2023-04-24T05:39:48;61860.41;;;8.14
48628;BMP280;34424;52.234;6.500;2023-04-24T05:44:52;61868.25;;;8.16
48628;BMP280;34424;52.234;6.500;2023-04-24T05:49:58;61829.81;;;8.14
48628;BMP280;34424;52.234;6.500;2023-04-24T05:55:01;61862.00;;;8.15
48628;BMP280;34424;52.234;6.500;2023-04-24T06:00:06;61865.63;;;8.14
48628;BMP280;34424;52.234;6.500;2023-04-24T06:05:09;61877.47;;;8.10
48628;BMP280;34424;52.234;6.500;2023-04-24T06:10:12;61851.94;;;8.06
48628;BMP280;34424;52.234;6.500;2023-04-24T06:15:16;61827.91;;;8.00
48628;BMP280;34424;52.234;6.500;2023-04-24T06:20:19;61843.91;;;7.95
48628;BMP280;34424;52.234;6.500;2023-04-24T06:25:24;61827.22;;;7.92
48628;BMP280;34424;52.234;6.500;2023-04-24T06:30:28;61846.91;;;7.91
48628;BMP280;34424;52.234;6.500;2023-04-24T06:35:30;61812.69;;;7.93
48628;BMP280;34424;52.234;6.500;2023-04-24T06:40:33;61832.34;;;7.89
48628;BMP280;34424;52.234;6.500;2023-04-24T06:45:38;61838.66;;;7.93
48628;BMP280;34424;52.234;6.500;2023-04-24T06:50:41;61846.91;;;7.91
48628;BMP280;34424;52.234;6.500;2023-04-24T06:55:45;61863.06;;;7.94
48628;BMP280;34424;52.234;6.500;2023-04-24T07:00:49;61859.63;;;8.03
48628;BMP280;34424;52.234;6.500;2023-04-24T07:05:51;61861.91;;;8.10
48628;BMP280;34424;52.234;6.500;2023-04-24T07:10:54;61869.31;;;8.17
48628;BMP280;34424;52.234;6.500;2023-04-24T07:15:58;61847.91;;;8.12
48628;BMP280;34424;52.234;6.500;2023-04-24T07:21:01;61850.69;;;8.19
48628;BMP280;34424;52.234;6.500;2023-04-24T07:26:04;61869.31;;;8.17
48628;BMP280;34424;52.234;6.500;2023-04-24T07:31:08;61874.69;;;8.25
48628;BMP280;34424;52.234;6.500;2023-04-24T07:36:11;61871.56;;;8.24
48628;BMP280;34424;52.234;6.500;2023-04-24T07:41:17;61887.53;;;8.40
48628;BMP280;34424;52.234;6.500;2023-04-24T07:46:21;61913.59;;;8.67
48628;BMP280;34424;52.234;6.500;2023-04-24T07:51:24;61929.91;;;8.75
48628;BMP280;34424;52.234;6.500;2023-04-24T07:56:28;61984.03;;;9.00
48628;BMP280;34424;52.234;6.500;2023-04-24T08:01:34;61938.16;;;8.96
48628;BMP280;34424;52.234;6.500;2023-04-24T08:06:36;61934.69;;;8.80
48628;BMP280;34424;52.234;6.500;2023-04-24T08:11:39;61905.00;;;8.76
48628;BMP280;34424;52.234;6.500;2023-04-24T08:16:43;61909.31;;;8.60
48628;BMP280;34424;52.234;6.500;2023-04-24T08:21:46;61898.38;;;8.60
48628;BMP280;34424;52.234;6.500;2023-04-24T08:26:49;61905.06;;;8.56
48628;BMP280;34424;52.234;6.500;2023-04-24T08:31:54;61908.19;;;8.57
48628;BMP280;34424;52.234;6.500;2023-04-24T08:36:57;61889.00;;;8.58
48628;BMP280;34424;52.234;6.500;2023-04-24T08:42:00;61875.38;;;8.53
48628;BMP280;34424;52.234;6.500;2023-04-24T08:47:10;61888.94;;;8.34
48628;BMP280;34424;52.234;6.500;2023-04-24T08:52:16;61876.75;;;8.24
48628;BMP280;34424;52.234;6.500;2023-04-24T08:57:20;61862.59;;;8.18
48628;BMP280;34424;52.234;6.500;2023-04-24T09:02:25;61857.53;;;8.01
48628;BMP280;34424;52.234;6.500;2023-04-24T09:07:30;61823.06;;;7.93
48628;BMP280;34424;52.234;6.500;2023-04-24T09:12:35;61821.25;;;7.81
48628;BMP280;34424;52.234;6.500;2023-04-24T09:17:40;61824.56;;;7.89
48628;BMP280;34424;52.234;6.500;2023-04-24T09:22:42;61841.34;;;7.98
48628;BMP280;34424;52.234;6.500;2023-04-24T09:27:47;61846.78;;;8.08
48628;BMP280;34424;52.234;6.500;2023-04-24T09:33:09;61834.88;;;8.09
48628;BMP280;34424;52.234;6.500;2023-04-24T09:38:12;61888.56;;;8.18
48628;BMP280;34424;52.234;6.500;2023-04-24T09:43:14;61864.88;;;8.28
48628;BMP280;34424;52.234;6.500;2023-04-24T09:48:18;61900.41;;;8.35
48628;BMP280;34424;52.234;6.500;2023-04-24T09:53:24;61885.94;;;8.38
48628;BMP280;34424;52.234;6.500;2023-04-24T09:58:28;61878.97;;;8.29
48628;BMP280;34424;52.234;6.500;2023-04-24T10:03:33;61868.69;;;8.34
48628;BMP280;34424;52.234;6.500;2023-04-24T10:08:36;61847.19;;;8.26
48628;BMP280;34424;52.234;6.500;2023-04-24T10:13:39;61869.38;;;8.20
48628;BMP280;34424;52.234;6.500;2023-04-24T10:18:44;61864.38;;;8.05
48628;BMP280;34424;52.234;6.500;2023-04-24T10:23:48;61841.47;;;8.03
48628;BMP280;34424;52.234;6.500;2023-04-24T10:28:52;61847.19;;;8.04
48628;BMP280;34424;52.234;6.500;2023-04-24T10:33:56;61885.63;;;8.48
48628;BMP280;34424;52.234;6.500;2023-04-24T10:39:02;61945.13;;;9.05
48628;BMP280;34424;52.234;6.500;2023-04-24T10:44:06;61918.50;;;8.99
48628;BMP280;34424;52.234;6.500;2023-04-24T10:49:11;61880.22;;;8.38
48628;BMP280;34424;52.234;6.500;2023-04-24T10:54:24;61837.81;;;8.02
48628;BMP280;34424;52.234;6.500;2023-04-24T10:59:34;61870.28;;;8.13
48628;BMP280;34424;52.234;6.500;2023-04-24T11:04:40;61891.78;;;8.44
48628;BMP280;34424;52.234;6.500;2023-04-24T11:09:44;61909.38;;;8.63
48628;BMP280;34424;52.234;6.500;2023-04-24T11:15:03;61925.06;;;8.90
48628;BMP280;34424;52.234;6.500;2023-04-24T11:20:09;61963.69;;;8.98
48628;BMP280;34424;52.234;6.500;2023-04-24T11:25:30;61915.69;;;8.67
48628;BMP280;34424;52.234;6.500;2023-04-24T11:30:33;61947.25;;;9.07
48628;BMP280;34424;52.234;6.500;2023-04-24T11:35:40;62095.16;;;10.26
48628;BMP280;34424;52.234;6.500;2023-04-24T11:40:43;62053.47;;;10.26
48628;BMP280;34424;52.234;6.500;2023-04-24T11:45:48;62034.44;;;9.90
48628;BMP280;34424;52.234;6.500;2023-04-24T11:50:52;62021.59;;;9.98
48628;BMP280;34424;52.234;6.500;2023-04-24T11:55:55;61965.91;;;9.49
48628;BMP280;34424;52.234;6.500;2023-04-24T12:00:58;61933.31;;;8.88
48628;BMP280;34424;52.234;6.500;2023-04-24T12:06:09;61946.03;;;8.76
48628;BMP280;34424;52.234;6.500;2023-04-24T12:11:15;61933.81;;;8.86
48628;BMP280;34424;52.234;6.500;2023-04-24T12:16:19;61901.19;;;8.92
48628;BMP280;34424;52.234;6.500;2023-04-24T12:21:23;61911.38;;;8.82
48628;BMP280;34424;52.234;6.500;2023-04-24T12:26:28;61970.28;;;9.36
48628;BMP280;34424;52.234;6.500;2023-04-24T12:31:31;62043.41;;;10.19
48628;BMP280;34424;52.234;6.500;2023-04-24T12:36:36;62081.28;;;10.12
48628;BMP280;34424;52.234;6.500;2023-04-24T12:41:50;62022.78;;;9.81
48628;BMP280;34424;52.234;6.500;2023-04-24T12:46:52;61987.34;;;9.55
48628;BMP280;34424;52.234;6.500;2023-04-24T12:51:56;61961.72;;;9.26
48628;BMP280;34424;52.234;6.500;2023-04-24T12:56:59;61970.28;;;9.36
48628;BMP280;34424;52.234;6.500;2023-04-24T13:02:02;62057.34;;;10.37
48628;BMP280;34424;52.234;6.500;2023-04-24T13:07:06;62103.94;;;10.71
48628;BMP280;34424;52.234;6.500;2023-04-24T13:12:09;62105.84;;;10.63
48628;BMP280;34424;52.234;6.500;2023-04-24T13:17:12;62050.97;;;10.08
48628;BMP280;34424;52.234;6.500;2023-04-24T13:22:17;61997.66;;;9.50
48628;BMP280;34424;52.234;6.500;2023-04-24T13:27:21;61898.06;;;8.70
48628;BMP280;34424;52.234;6.500;2023-04-24T13:32:23;61942.56;;;8.82
48628;BMP280;34424;52.234;6.500;2023-04-24T13:37:28;61947.09;;;9.71
48628;BMP280;34424;52.234;6.500;2023-04-24T13:42:30;62094.34;;;10.37
48628;BMP280;34424;52.234;6.500;2023-04-24T13:47:33;62010.81;;;10.05
48628;BMP280;34424;52.234;6.500;2023-04-24T13:52:38;62020.28;;;9.39
48628;BMP280;34424;52.234;6.500;2023-04-24T13:57:42;61942.25;;;8.92
48628;BMP280;34424;52.234;6.500;2023-04-24T14:02:44;61943.56;;;8.58
48628;BMP280;34424;52.234;6.500;2023-04-24T14:07:51;61935.88;;;8.86
48628;BMP280;34424;52.234;6.500;2023-04-24T14:12:54;61953.94;;;9.26
48628;BMP280;34424;52.234;6.500;2023-04-24T14:17:57;61963.28;;;9.49
48628;BMP280;34424;52.234;6.500;2023-04-24T14:23:01;61981.38;;;9.44
48628;BMP280;34424;52.234;6.500;2023-04-24T14:28:05;62033.91;;;9.90
48628;BMP280;34424;52.234;6.500;2023-04-24T14:33:08;62097.66;;;10.45
48628;BMP280;34424;52.234;6.500;2023-04-24T14:38:12;62058.09;;;10.00
48628;BMP280;34424;52.234;6.500;2023-04-24T14:43:15;61998.72;;;9.51
48628;BMP280;34424;52.234;6.500;2023-04-24T14:48:18;61961.72;;;9.26
48628;BMP280;34424;52.234;6.500;2023-04-24T14:53:22;61968.28;;;8.95
48628;BMP280;34424;52.234;6.500;2023-04-24T14:58:24;61916.75;;;8.68
48628;BMP280;34424;52.234;6.500;2023-04-24T15:03:27;61953.25;;;9.20
48628;BMP280;34424;52.234;6.500;2023-04-24T15:08:32;62057.72;;;10.30
48628;BMP280;34424;52.234;6.500;2023-04-24T15:13:35;62165.25;;;11.35
48628;BMP280;34424;52.234;6.500;2023-04-24T15:18:37;62109.75;;;10.74
48628;BMP280;34424;52.234;6.500;2023-04-24T15:23:41;62056.63;;;10.04
48628;BMP280;34424;52.234;6.500;2023-04-24T15:28:44;61990.44;;;9.78
48628;BMP280;34424;52.234;6.500;2023-04-24T15:33:48;62068.78;;;10.35
48628;BMP280;34424;52.234;6.500;2023-04-24T15:38:53;62194.56;;;11.63
48628;BMP280;34424;52.234;6.500;2023-04-24T15:43:56;62198.28;;;11.66
48628;BMP280;34424;52.234;6.500;2023-04-24T15:48:59;62176.66;;;11.31
48628;BMP280;34424;52.234;6.500;2023-04-24T15:54:04;62182.53;;;11.36
48628;BMP280;34424;52.234;6.500;2023-04-24T15:59:07;62078.41;;;10.47
48628;BMP280;34424;52.234;6.500;2023-04-24T16:04:11;62097.44;;;10.60
48628;BMP280;34424;52.234;6.500;2023-04-24T16:09:15;62262.75;;;12.28
48628;BMP280;34424;52.234;6.500;2023-04-24T16:14:18;62166.22;;;11.31
48628;BMP280;34424;52.234;6.500;2023-04-24T16:19:21;62249.28;;;12.08
48628;BMP280;34424;52.234;6.500;2023-04-24T16:24:27;62097.41;;;10.58
48628;BMP280;34424;52.234;6.500;2023-04-24T16:29:30;62050.84;;;10.26
48628;BMP280;34424;52.234;6.500;2023-04-24T16:34:33;62170.31;;;11.52
48628;BMP280;34424;52.234;6.500;2023-04-24T16:39:37;62089.41;;;10.50
48628;BMP280;34424;52.234;6.500;2023-04-24T16:44:45;61993.06;;;9.78
48628;BMP280;34424;52.234;6.500;2023-04-24T16:49:48;62035.28;;;10.28
48628;BMP280;34424;52.234;6.500;2023-04-24T16:54:52;61985.22;;;9.53
48628;BMP280;34424;52.234;6.500;2023-04-24T16:59:55;61958.06;;;9.25
48628;BMP280;34424;52.234;6.500;2023-04-24T17:04:58;61959.19;;;9.28
48628;BMP280;34424;52.234;6.500;2023-04-24T17:10:02;62006.47;;;9.26
48628;BMP280;34424;52.234;6.500;2023-04-24T17:15:06;61971.06;;;9.25
48628;BMP280;34424;52.234;6.500;2023-04-24T17:20:09;61950.56;;;9.15
48628;BMP280;34424;52.234;6.500;2023-04-24T17:25:25;61978.78;;;9.22
48628;BMP280;34424;52.234;6.500;2023-04-24T17:30:27;61924.03;;;8.92
48628;BMP280;34424;52.234;6.500;2023-04-24T17:35:30;61908.28;;;8.84
48628;BMP280;34424;52.234;6.500;2023-04-24T17:40:34;61945.38;;;8.70
48628;BMP280;34424;52.234;6.500;2023-04-24T17:45:39;61895.00;;;8.72
48628;BMP280;34424;52.234;6.500;2023-04-24T17:50:42;61908.84;;;8.63
48628;BMP280;34424;52.234;6.500;2023-04-24T17:55:46;61922.25;;;8.58
48628;BMP280;34424;52.234;6.500;2023-04-24T18:00:49;61898.97;;;8.41
48628;BMP280;34424;52.234;6.500;2023-04-24T18:05:52;61839.00;;;8.30
48628;BMP280;34424;52.234;6.500;2023-04-24T18:10:56;61859.00;;;8.20
48628;BMP280;34424;52.234;6.500;2023-04-24T18:15:59;61839.41;;;8.04
48628;BMP280;34424;52.234;6.500;2023-04-24T18:21:03;61832.81;;;7.87
48628;BMP280;34424;52.234;6.500;2023-04-24T18:26:07;61812.63;;;7.68
48628;BMP280;34424;52.234;6.500;2023-04-24T18:31:10;61816.81;;;7.47
48628;BMP280;34424;52.234;6.500;2023-04-24T18:36:13;61751.56;;;7.29
48628;BMP280;34424;52.234;6.500;2023-04-24T18:41:17;61784.34;;;7.33
48628;BMP280;34424;52.234;6.500;2023-04-24T18:46:20;61783.66;;;7.28
48628;BMP280;34424;52.234;6.500;2023-04-24T18:51:23;61773.25;;;7.25
48628;BMP280;34424;52.234;6.500;2023-04-24T18:56:27;61789.69;;;7.19
48628;BMP280;34424;52.234;6.500;2023-04-24T19:01:29;61775.13;;;7.17
48628;BMP280;34424;52.234;6.500;2023-04-24T19:06:33;61788.03;;;7.15
48628;BMP280;34424;52.234;6.500;2023-04-24T19:11:37;61785.91;;;7.13
48628;BMP280;34424;52.234;6.500;2023-04-24T19:16:42;61754.13;;;7.07
48628;BMP280;34424;52.234;6.500;2023-04-24T19:21:44;61755.13;;;7.05
48628;BMP280;34424;52.234;6.500;2023-04-24T19:26:49;61771.69;;;7.04
48628;BMP280;34424;52.234;6.500;2023-04-24T19:31:51;61768.63;;;7.06
48628;BMP280;34424;52.234;6.500;2023-04-24T19:36:55;61763.50;;;7.08
48628;BMP280;34424;52.234;6.500;2023-04-24T19:41:59;61779.00;;;7.06
48628;BMP280;34424;52.234;6.500;2023-04-24T19:47:05;61749.91;;;7.03
48628;BMP280;34424;52.234;6.500;2023-04-24T19:52:08;61730.69;;;7.02
48628;BMP280;34424;52.234;6.500;2023-04-24T19:57:12;61765.97;;;7.03
48628;BMP280;34424;52.234;6.500;2023-04-24T20:02:15;61781.75;;;6.91
48628;BMP280;34424;52.234;6.500;2023-04-24T20:07:18;61728.41;;;6.92
48628;BMP280;34424;52.234;6.500;2023-04-24T20:12:22;61759.91;;;6.88
48628;BMP280;34424;52.234;6.500;2023-04-24T20:17:24;61737.19;;;6.91
48628;BMP280;34424;52.234;6.500;2023-04-24T20:22:28;61751.78;;;6.95
48628;BMP280;34424;52.234;6.500;2023-04-24T20:27:33;61756.91;;;6.92
48628;BMP280;34424;52.234;6.500;2023-04-24T20:32:36;61749.06;;;6.90
48628;BMP280;34424;52.234;6.500;2023-04-24T20:37:39;61736.59;;;6.88
48628;BMP280;34424;52.234;6.500;2023-04-24T20:42:43;61718.84;;;6.83
48628;BMP280;34424;52.234;6.500;2023-04-24T20:47:46;61749.41;;;6.83
48628;BMP280;34424;52.234;6.500;2023-04-24T20:52:51;61730.84;;;6.65
48628;BMP280;34424;52.234;6.500;2023-04-24T20:57:55;61696.34;;;6.52
48628;BMP280;34424;52.234;6.500;2023-04-24T21:02:57;61699.00;;;6.34
48628;BMP280;34424;52.234;6.500;2023-04-24T21:08:02;61694.72;;;6.28
48628;BMP280;34424;52.234;6.500;2023-04-24T21:13:06;61701.88;;;6.25
48628;BMP280;34424;52.234;6.500;2023-04-24T21:18:09;61687.81;;;6.21
48628;BMP280;34424;52.234;6.500;2023-04-24T21:23:12;61694.94;;;6.15
48628;BMP280;34424;52.234;6.500;2023-04-24T21:28:16;61644.63;;;6.12
48628;BMP280;34424;52.234;6.500;2023-04-24T21:33:18;61692.28;;;6.13
48628;BMP280;34424;52.234;6.500;2023-04-24T21:38:22;61698.50;;;6.14
48628;BMP280;34424;52.234;6.500;2023-04-24T21:43:26;61693.72;;;6.09
48628;BMP280;34424;52.234;6.500;2023-04-24T21:48:45;61670.38;;;6.07
48628;BMP280;34424;52.234;6.500;2023-04-24T21:53:47;61668.28;;;6.05
48628;BMP280;34424;52.234;6.500;2023-04-24T21:58:52;61676.63;;;6.08
48628;BMP280;34424;52.234;6.500;2023-04-24T22:03:54;61656.34;;;6.03
48628;BMP280;34424;52.234;6.500;2023-04-24T22:08:57;61667.16;;;6.01
48628;BMP280;34424;52.234;6.500;2023-04-24T22:14:01;61708.59;;;6.04
48628;BMP280;34424;52.234;6.500;2023-04-24T22:19:04;61675.03;;;6.06
48628;BMP280;34424;52.234;6.500;2023-04-24T22:24:07;61661.97;;;6.01
48628;BMP280;34424;52.234;6.500;2023-04-24T22:29:11;61691.03;;;6.04
48628;BMP280;34424;52.234;6.500;2023-04-24T22:34:14;61664.56;;;6.01
48628;BMP280;34424;52.234;6.500;2023-04-24T22:39:17;61665.63;;;6.02
48628;BMP280;34424;52.234;6.500;2023-04-24T22:44:21;61667.22;;;6.04
48628;BMP280;34424;52.234;6.500;2023-04-24T22:49:24;61670.38;;;6.07
48628;BMP280;34424;52.234;6.500;2023-04-24T22:54:27;61710.25;;;6.08
48628;BMP280;34424;52.234;6.500;2023-04-24T22:59:31;61659.97;;;6.04
48628;BMP280;34424;52.234;6.500;2023-04-24T23:04:35;61686.97;;;6.08
48628;BMP280;34424;52.234;6.500;2023-04-24T23:09:37;61663.69;;;6.08
48628;BMP280;34424;52.234;6.500;2023-04-24T23:14:41;61718.53;;;6.08
48628;BMP280;34424;52.234;6.500;2023-04-24T23:19:44;61700.03;;;6.13
48628;BMP280;34424;52.234;6.500;2023-04-24T23:24:47;61679.16;;;6.05
48628;BMP280;34424;52.234;6.500;2023-04-24T23:29:51;61670.13;;;5.97
48628;BMP280;34424;52.234;6.500;2023-04-24T23:34:53;61661.09;;;5.88
48628;BMP280;34424;52.234;6.500;2023-04-24T23:39:56;61619.94;;;5.76
48628;BMP280;34424;52.234;6.500;2023-04-24T23:45:00;61667.34;;;5.69
48628;BMP280;34424;52.234;6.500;2023-04-24T23:50:04;61607.22;;;5.64
48628;BMP280;34424;52.234;6.500;2023-04-24T23:55:08;61642.75;;;5.58
